createdAt,value
2022-09-25T00:00:54.561Z,49.30
2022-09-25T00:01:56.978Z,49.30
2022-09-25T00:02:59.397Z,49.30
2022-09-25T00:04:02.170Z,49.40
2022-09-25T00:05:04.621Z,49.40
2022-09-25T00:06:11.875Z,49.40
2022-09-25T00:07:14.164Z,49.50
2022-09-25T00:08:17.335Z,49.40
2022-09-25T00:09:21.608Z,49.30
2022-09-25T00:10:28.712Z,49.30
2022-09-25T00:11:32.805Z,49.30
2022-09-25T00:12:35.987Z,49.30
2022-09-25T00:13:38.371Z,49.30
2022-09-25T00:14:40.943Z,49.30
2022-09-25T00:15:53.427Z,49.30
2022-09-25T00:16:55.629Z,49.40
2022-09-25T00:17:57.859Z,49.30
2022-09-25T00:19:19.068Z,49.30
2022-09-25T00:20:22.019Z,49.40
2022-09-25T00:21:30.986Z,49.40
2022-09-25T00:22:33.279Z,49.50
2022-09-25T00:23:35.520Z,49.40
2022-09-25T00:24:37.738Z,49.40
2022-09-25T00:25:40.199Z,49.30
2022-09-25T00:26:42.822Z,49.30
2022-09-25T00:27:45.742Z,49.30
2022-09-25T00:28:48.115Z,49.40
2022-09-25T00:29:50.375Z,49.40
2022-09-25T00:30:52.760Z,49.40
2022-09-25T00:31:55.474Z,49.50
2022-09-25T00:32:57.789Z,49.50
2022-09-25T00:34:01.291Z,49.50
2022-09-25T00:35:03.756Z,49.50
2022-09-25T00:36:07.169Z,49.60
2022-09-25T00:37:09.372Z,49.60
2022-09-25T00:38:11.599Z,49.60
2022-09-25T00:39:13.775Z,49.60
2022-09-25T00:40:15.954Z,49.50
2022-09-25T00:41:19.098Z,49.50
2022-09-25T00:42:21.798Z,49.60
2022-09-25T00:43:40.594Z,49.60
2022-09-25T00:44:59.202Z,49.60
2022-09-25T00:46:02.840Z,49.60
2022-09-25T00:47:05.394Z,49.60
2022-09-25T00:48:10.816Z,49.60
2022-09-25T00:49:14.726Z,49.50
2022-09-25T00:50:52.322Z,49.50
2022-09-25T00:52:03.320Z,49.40
2022-09-25T00:53:08.419Z,49.40
2022-09-25T00:54:16.607Z,49.40
2022-09-25T00:55:19.005Z,49.40
2022-09-25T00:56:21.136Z,49.40
2022-09-25T00:57:26.940Z,49.40
2022-09-25T00:58:30.365Z,49.40
2022-09-25T00:59:52.259Z,49.50
2022-09-25T01:00:54.557Z,49.50
2022-09-25T01:01:57.162Z,49.40
2022-09-25T01:02:59.445Z,49.60
2022-09-25T01:04:01.897Z,49.40
2022-09-25T01:05:06.703Z,49.40
2022-09-25T01:06:10.373Z,49.40
2022-09-25T01:07:12.912Z,49.40
2022-09-25T01:08:18.190Z,49.40
2022-09-25T01:09:20.408Z,49.40
2022-09-25T01:10:22.847Z,49.40
2022-09-25T01:11:25.067Z,49.40
2022-09-25T01:12:27.996Z,49.40
2022-09-25T01:13:30.202Z,49.40
2022-09-25T01:14:34.158Z,49.40
2022-09-25T01:15:39.059Z,49.40
2022-09-25T01:16:52.584Z,49.40
2022-09-25T01:18:03.984Z,49.40
2022-09-25T01:19:21.024Z,49.40
2022-09-25T01:20:41.754Z,49.40
2022-09-25T01:21:50.525Z,49.40
2022-09-25T01:23:02.568Z,49.40
2022-09-25T01:24:23.356Z,49.40
2022-09-25T01:25:31.472Z,49.50
2022-09-25T01:26:56.181Z,49.50
2022-09-25T01:28:16.905Z,49.40
2022-09-25T01:29:20.373Z,49.50
2022-09-25T01:30:22.592Z,49.50
2022-09-25T01:31:29.777Z,49.50
2022-09-25T01:32:34.599Z,49.50
2022-09-25T01:33:42.624Z,49.50
2022-09-25T01:34:54.924Z,49.50
2022-09-25T01:36:02.045Z,49.50
2022-09-25T01:37:19.404Z,49.40
2022-09-25T01:38:22.099Z,49.50
2022-09-25T01:39:32.421Z,49.50
2022-09-25T01:40:57.473Z,49.50
2022-09-25T01:42:09.113Z,49.50
2022-09-25T01:43:14.636Z,49.50
2022-09-25T01:44:28.858Z,49.50
2022-09-25T01:45:35.548Z,49.40
2022-09-25T01:46:42.613Z,49.50
2022-09-25T01:47:48.587Z,49.50
2022-09-25T01:48:55.470Z,49.50
2022-09-25T01:50:02.723Z,49.50
2022-09-25T01:51:07.174Z,49.50
2022-09-25T01:52:13.740Z,49.50
2022-09-25T01:53:18.640Z,49.50
2022-09-25T01:54:22.647Z,49.50
2022-09-25T01:55:35.941Z,49.50
2022-09-25T01:56:56.646Z,49.50
2022-09-25T01:58:03.439Z,49.50
2022-09-25T01:59:08.725Z,49.50
2022-09-25T02:00:21.870Z,49.50
2022-09-25T02:01:27.446Z,49.50
2022-09-25T02:02:33.907Z,49.50
2022-09-25T02:03:41.162Z,49.50
2022-09-25T02:04:46.351Z,49.50
2022-09-25T02:05:50.413Z,49.50
2022-09-25T02:06:54.196Z,49.40
2022-09-25T02:08:05.385Z,49.40
2022-09-25T02:09:11.118Z,49.50
2022-09-25T02:10:26.066Z,49.50
2022-09-25T02:11:31.616Z,49.50
2022-09-25T02:12:36.980Z,49.50
2022-09-25T02:13:43.949Z,49.50
2022-09-25T02:14:51.032Z,49.50
2022-09-25T02:16:02.034Z,49.50
2022-09-25T02:17:06.214Z,49.50
2022-09-25T02:18:29.356Z,49.50
2022-09-25T02:19:50.148Z,49.50
2022-09-25T02:20:58.254Z,49.50
2022-09-25T02:22:04.628Z,49.50
2022-09-25T02:23:14.663Z,49.60
2022-09-25T02:24:22.826Z,49.50
2022-09-25T02:25:35.953Z,49.50
2022-09-25T02:26:39.589Z,50.50
2022-09-25T02:27:41.864Z,49.60
2022-09-25T02:28:44.028Z,49.60
2022-09-25T02:29:46.219Z,49.70
2022-09-25T02:30:49.360Z,49.70
2022-09-25T02:31:55.701Z,49.80
2022-09-25T02:32:58.161Z,49.70
2022-09-25T02:34:00.343Z,49.80
2022-09-25T02:35:02.979Z,50.00
2022-09-25T02:36:06.390Z,50.10
2022-09-25T02:37:12.061Z,50.20
2022-09-25T02:38:14.821Z,50.30
2022-09-25T02:39:19.315Z,50.40
2022-09-25T02:40:23.713Z,50.50
2022-09-25T02:41:46.907Z,50.60
2022-09-25T02:42:58.955Z,50.70
2022-09-25T02:44:07.153Z,50.80
2022-09-25T02:45:17.206Z,50.90
2022-09-25T02:46:37.739Z,51.00
2022-09-25T02:47:47.979Z,51.00
2022-09-25T02:48:55.279Z,51.10
2022-09-25T02:50:06.534Z,51.20
2022-09-25T02:51:18.939Z,51.20
2022-09-25T02:52:36.600Z,51.10
2022-09-25T02:53:42.487Z,51.20
2022-09-25T02:54:46.584Z,51.20
2022-09-25T02:55:52.647Z,51.30
2022-09-25T02:57:16.103Z,51.30
2022-09-25T02:58:22.741Z,51.40
2022-09-25T02:59:28.709Z,51.40
2022-09-25T03:00:32.737Z,51.40
2022-09-25T03:01:37.750Z,51.50
2022-09-25T03:02:41.111Z,51.50
2022-09-25T03:03:44.825Z,51.50
2022-09-25T03:04:48.645Z,51.60
2022-09-25T03:05:52.362Z,51.50
2022-09-25T03:06:54.877Z,51.50
2022-09-25T03:08:15.447Z,51.60
2022-09-25T03:09:19.551Z,51.60
2022-09-25T03:10:22.283Z,51.60
2022-09-25T03:11:26.798Z,51.60
2022-09-25T03:12:28.978Z,51.60
2022-09-25T03:13:31.869Z,51.60
2022-09-25T03:14:34.135Z,51.50
2022-09-25T03:15:37.063Z,51.50
2022-09-25T03:16:40.560Z,51.50
2022-09-25T03:17:43.519Z,51.50
2022-09-25T03:18:46.577Z,51.50
2022-09-25T03:19:48.805Z,51.70
2022-09-25T03:20:55.118Z,51.70
2022-09-25T03:21:57.267Z,51.70
2022-09-25T03:22:59.462Z,51.70
2022-09-25T03:24:01.776Z,51.80
2022-09-25T03:25:05.376Z,51.80
2022-09-25T03:26:07.831Z,51.80
2022-09-25T03:27:10.060Z,51.90
2022-09-25T03:28:12.308Z,51.90
2022-09-25T03:29:17.228Z,52.00
2022-09-25T03:30:19.586Z,52.00
2022-09-25T03:31:21.845Z,51.90
2022-09-25T03:32:24.119Z,52.00
2022-09-25T03:33:26.944Z,51.90
2022-09-25T03:34:29.150Z,51.80
2022-09-25T03:35:31.319Z,51.80
2022-09-25T03:36:36.325Z,51.80
2022-09-25T03:37:38.589Z,51.70
2022-09-25T03:38:44.006Z,51.80
2022-09-25T03:39:46.251Z,51.80
2022-09-25T03:40:48.484Z,51.80
2022-09-25T03:41:50.661Z,51.90
2022-09-25T03:42:52.829Z,51.90
2022-09-25T03:43:56.562Z,51.90
2022-09-25T03:44:58.718Z,51.90
2022-09-25T03:46:00.928Z,51.90
2022-09-25T03:47:03.197Z,52.00
2022-09-25T03:48:05.485Z,52.00
2022-09-25T03:49:07.638Z,52.10
2022-09-25T03:50:09.946Z,52.10
2022-09-25T03:51:12.374Z,52.20
2022-09-25T03:52:14.610Z,52.30
2022-09-25T03:53:18.162Z,52.20
2022-09-25T03:54:20.350Z,52.20
2022-09-25T03:55:22.505Z,52.20
2022-09-25T03:56:25.653Z,52.10
2022-09-25T03:57:28.059Z,52.10
2022-09-25T03:58:30.457Z,52.20
2022-09-25T03:59:33.014Z,52.10
2022-09-25T04:00:35.233Z,52.00
2022-09-25T04:01:37.449Z,52.00
2022-09-25T04:02:39.708Z,52.00
2022-09-25T04:03:45.485Z,52.00
2022-09-25T04:04:47.676Z,52.00
2022-09-25T04:05:50.641Z,52.00
2022-09-25T04:06:52.826Z,52.00
2022-09-25T04:07:55.040Z,52.00
2022-09-25T04:08:57.226Z,52.00
2022-09-25T04:09:59.482Z,52.00
2022-09-25T04:11:01.832Z,52.00
2022-09-25T04:12:07.498Z,52.00
2022-09-25T04:13:12.755Z,52.00
2022-09-25T04:14:15.030Z,52.00
2022-09-25T04:15:17.904Z,52.00
2022-09-25T04:16:21.037Z,52.00
2022-09-25T04:17:23.403Z,51.90
2022-09-25T04:18:25.913Z,51.90
2022-09-25T04:19:28.112Z,51.90
2022-09-25T04:20:30.238Z,51.90
2022-09-25T04:21:32.433Z,51.90
2022-09-25T04:22:34.572Z,51.80
2022-09-25T04:23:37.076Z,51.90
2022-09-25T04:24:51.042Z,51.80
2022-09-25T04:25:53.643Z,51.80
2022-09-25T04:26:55.874Z,51.80
2022-09-25T04:27:58.382Z,51.80
2022-09-25T04:29:03.387Z,51.80
2022-09-25T04:30:05.971Z,51.80
2022-09-25T04:31:08.200Z,51.90
2022-09-25T04:32:28.956Z,51.80
2022-09-25T04:33:46.223Z,51.90
2022-09-25T04:34:48.405Z,51.80
2022-09-25T04:35:50.552Z,51.90
2022-09-25T04:36:52.670Z,51.90
2022-09-25T04:37:55.056Z,51.80
2022-09-25T04:38:57.279Z,51.80
2022-09-25T04:39:59.477Z,51.80
2022-09-25T04:41:02.327Z,51.80
2022-09-25T04:42:04.503Z,51.90
2022-09-25T04:43:07.007Z,51.90
2022-09-25T04:44:09.193Z,51.90
2022-09-25T04:45:11.428Z,52.00
2022-09-25T04:46:20.148Z,52.00
2022-09-25T04:47:24.669Z,52.00
2022-09-25T04:48:26.844Z,52.10
2022-09-25T04:49:29.297Z,52.10
2022-09-25T04:50:32.167Z,52.00
2022-09-25T04:51:37.606Z,52.20
2022-09-25T04:52:39.770Z,52.20
2022-09-25T04:53:43.199Z,52.20
2022-09-25T04:54:45.550Z,52.10
2022-09-25T04:55:48.079Z,51.90
2022-09-25T04:56:50.290Z,51.70
2022-09-25T04:57:59.057Z,51.90
2022-09-25T04:59:01.672Z,51.70
2022-09-25T05:00:04.885Z,51.80
2022-09-25T05:01:09.052Z,51.60
2022-09-25T05:02:14.272Z,51.30
2022-09-25T05:03:16.603Z,51.40
2022-09-25T05:04:19.668Z,51.20
2022-09-25T05:05:21.860Z,51.40
2022-09-25T05:06:24.111Z,51.20
2022-09-25T05:07:26.305Z,51.20
2022-09-25T05:08:28.756Z,51.00
2022-09-25T05:09:31.632Z,51.10
2022-09-25T05:10:36.611Z,50.90
2022-09-25T05:11:38.800Z,50.80
2022-09-25T05:12:41.185Z,50.70
2022-09-25T05:13:46.597Z,50.60
2022-09-25T05:14:48.917Z,50.50
2022-09-25T05:15:51.179Z,50.40
2022-09-25T05:16:53.401Z,50.50
2022-09-25T05:18:01.484Z,50.50
2022-09-25T05:19:03.686Z,50.60
2022-09-25T05:20:06.371Z,50.70
2022-09-25T05:21:08.545Z,50.80
2022-09-25T05:22:10.707Z,50.90
2022-09-25T05:23:12.904Z,50.90
2022-09-25T05:24:15.088Z,51.10
2022-09-25T05:25:17.291Z,51.30
2022-09-25T05:26:19.476Z,51.30
2022-09-25T05:27:23.188Z,51.30
2022-09-25T05:28:25.360Z,51.20
2022-09-25T05:29:27.875Z,51.20
2022-09-25T05:30:31.643Z,51.20
2022-09-25T05:31:33.999Z,51.20
2022-09-25T05:32:36.227Z,51.00
2022-09-25T05:33:38.443Z,51.00
2022-09-25T05:34:40.631Z,51.00
2022-09-25T05:35:42.725Z,50.90
2022-09-25T05:36:44.870Z,50.80
2022-09-25T05:37:47.213Z,50.80
2022-09-25T05:38:49.425Z,50.70
2022-09-25T05:39:52.240Z,50.90
2022-09-25T05:40:55.687Z,50.60
2022-09-25T05:41:57.961Z,50.70
2022-09-25T05:43:01.943Z,50.60
2022-09-25T05:44:06.769Z,50.70
2022-09-25T05:45:09.372Z,50.70
2022-09-25T05:46:11.621Z,50.80
2022-09-25T05:47:14.075Z,51.40
2022-09-25T05:48:17.479Z,51.00
2022-09-25T05:49:19.658Z,51.10
2022-09-25T05:50:21.855Z,51.20
2022-09-25T05:51:24.076Z,51.10
2022-09-25T05:52:26.231Z,51.10
2022-09-25T05:53:28.886Z,51.00
2022-09-25T05:54:31.088Z,51.00
2022-09-25T05:55:33.299Z,51.00
2022-09-25T05:56:35.496Z,50.90
2022-09-25T05:57:37.964Z,50.90
2022-09-25T05:58:40.140Z,50.90
2022-09-25T05:59:42.303Z,50.80
2022-09-25T06:00:44.522Z,50.80
2022-09-25T06:01:46.760Z,50.80
2022-09-25T06:02:51.399Z,50.70
2022-09-25T06:03:53.687Z,50.60
2022-09-25T06:04:55.874Z,50.50
2022-09-25T06:05:58.611Z,50.50
2022-09-25T06:07:02.517Z,50.40
2022-09-25T06:08:04.734Z,50.40
2022-09-25T06:09:06.953Z,50.20
2022-09-25T06:10:09.864Z,50.40
2022-09-25T06:11:12.080Z,50.20
2022-09-25T06:12:14.220Z,50.20
2022-09-25T06:13:16.370Z,50.00
2022-09-25T06:14:19.510Z,50.10
2022-09-25T06:15:23.936Z,49.80
2022-09-25T06:16:27.123Z,49.70
2022-09-25T06:17:29.323Z,49.70
2022-09-25T06:18:32.552Z,49.70
2022-09-25T06:19:35.310Z,49.80
2022-09-25T06:20:37.527Z,49.90
2022-09-25T06:21:39.694Z,50.00
2022-09-25T06:22:44.442Z,50.20
2022-09-25T06:23:48.597Z,50.40
2022-09-25T06:24:50.853Z,50.60
2022-09-25T06:25:53.000Z,50.70
2022-09-25T06:26:55.594Z,50.70
2022-09-25T06:28:00.260Z,50.80
2022-09-25T06:29:03.892Z,50.80
2022-09-25T06:30:06.344Z,50.60
2022-09-25T06:31:08.728Z,50.50
2022-09-25T06:32:10.938Z,50.50
2022-09-25T06:33:14.049Z,50.30
2022-09-25T06:34:16.285Z,50.30
2022-09-25T06:35:18.451Z,50.20
2022-09-25T06:36:20.749Z,50.00
2022-09-25T06:37:22.938Z,50.20
2022-09-25T06:38:25.874Z,50.50
2022-09-25T06:39:28.034Z,50.20
2022-09-25T06:40:31.361Z,50.00
2022-09-25T06:41:33.666Z,50.00
2022-09-25T06:42:37.785Z,49.70
2022-09-25T06:43:40.040Z,49.90
2022-09-25T06:44:44.286Z,49.70
2022-09-25T06:45:52.796Z,49.80
2022-09-25T06:47:26.901Z,50.00
2022-09-25T06:48:37.826Z,50.10
2022-09-25T06:49:41.075Z,50.30
2022-09-25T06:50:45.132Z,50.20
2022-09-25T06:51:47.727Z,50.20
2022-09-25T06:52:49.938Z,50.20
2022-09-25T06:53:53.346Z,50.20
2022-09-25T06:54:55.689Z,50.20
2022-09-25T06:55:59.668Z,50.00
2022-09-25T06:57:01.921Z,50.30
2022-09-25T06:58:05.101Z,50.20
2022-09-25T06:59:08.294Z,50.30
2022-09-25T07:00:10.833Z,50.20
2022-09-25T07:01:13.770Z,50.40
2022-09-25T07:02:34.629Z,50.20
2022-09-25T07:03:46.671Z,50.20
2022-09-25T07:04:52.176Z,50.20
2022-09-25T07:05:54.714Z,50.20
2022-09-25T07:06:59.037Z,50.20
2022-09-25T07:08:01.705Z,50.00
2022-09-25T07:09:04.183Z,49.70
2022-09-25T07:10:06.906Z,49.80
2022-09-25T07:11:11.646Z,49.70
2022-09-25T07:12:14.900Z,49.70
2022-09-25T07:13:17.917Z,49.70
2022-09-25T07:14:22.133Z,49.70
2022-09-25T07:15:24.468Z,49.60
2022-09-25T07:16:27.931Z,49.70
2022-09-25T07:17:30.429Z,50.00
2022-09-25T07:18:40.372Z,50.20
2022-09-25T07:19:44.899Z,50.30
2022-09-25T07:20:47.759Z,50.40
2022-09-25T07:21:51.232Z,50.30
2022-09-25T07:22:54.313Z,50.30
2022-09-25T07:23:58.321Z,50.40
2022-09-25T07:25:00.900Z,50.30
2022-09-25T07:26:06.033Z,50.30
2022-09-25T07:27:08.336Z,50.30
2022-09-25T07:28:14.008Z,50.20
2022-09-25T07:29:16.473Z,50.20
2022-09-25T07:30:18.754Z,50.10
2022-09-25T07:31:22.893Z,50.00
2022-09-25T07:32:25.322Z,50.00
2022-09-25T07:33:27.777Z,49.50
2022-09-25T07:34:30.433Z,50.00
2022-09-25T07:35:34.038Z,50.30
2022-09-25T07:36:38.577Z,50.40
2022-09-25T07:37:41.023Z,50.30
2022-09-25T07:38:43.972Z,49.90
2022-09-25T07:39:46.422Z,49.90
2022-09-25T07:40:50.163Z,50.00
2022-09-25T07:41:54.311Z,50.10
2022-09-25T07:43:00.208Z,50.70
2022-09-25T07:44:18.026Z,50.30
2022-09-25T07:45:24.926Z,50.40
2022-09-25T07:46:28.109Z,50.40
2022-09-25T07:47:30.506Z,50.40
2022-09-25T07:48:32.843Z,50.50
2022-09-25T07:49:35.347Z,50.30
2022-09-25T07:50:37.847Z,50.10
2022-09-25T07:51:40.498Z,49.70
2022-09-25T07:52:42.939Z,49.60
2022-09-25T07:53:45.495Z,49.60
2022-09-25T07:54:48.386Z,49.70
2022-09-25T07:55:51.162Z,49.50
2022-09-25T07:56:53.349Z,49.90
2022-09-25T07:57:58.726Z,49.70
2022-09-25T07:59:01.062Z,49.50
2022-09-25T08:00:05.331Z,49.90
2022-09-25T08:01:14.597Z,50.00
2022-09-25T08:02:17.069Z,49.80
2022-09-25T08:03:20.180Z,49.80
2022-09-25T08:04:22.493Z,49.70
2022-09-25T08:05:25.327Z,49.50
2022-09-25T08:06:27.637Z,49.60
2022-09-25T08:07:30.050Z,49.60
2022-09-25T08:08:33.712Z,49.80
2022-09-25T08:09:36.193Z,49.60
2022-09-25T08:10:38.469Z,49.90
2022-09-25T08:11:41.082Z,49.40
2022-09-25T08:12:43.425Z,49.10
2022-09-25T08:13:45.959Z,49.20
2022-09-25T08:14:48.347Z,49.50
2022-09-25T08:15:51.769Z,49.60
2022-09-25T08:16:55.930Z,50.20
2022-09-25T08:17:59.167Z,50.00
2022-09-25T08:19:01.466Z,50.30
2022-09-25T08:20:04.153Z,50.30
2022-09-25T08:21:06.571Z,50.30
2022-09-25T08:22:08.903Z,50.70
2022-09-25T08:23:11.310Z,50.80
2022-09-25T08:24:13.792Z,50.90
2022-09-25T08:25:16.253Z,50.80
2022-09-25T08:26:20.844Z,50.10
2022-09-25T08:27:23.266Z,49.80
2022-09-25T08:28:25.784Z,50.30
2022-09-25T08:29:28.214Z,50.30
2022-09-25T08:30:30.595Z,50.60
2022-09-25T08:31:37.360Z,50.70
2022-09-25T08:32:40.898Z,50.70
2022-09-25T08:33:47.143Z,50.80
2022-09-25T08:34:50.009Z,50.80
2022-09-25T08:35:59.216Z,50.80
2022-09-25T08:37:01.563Z,50.80
2022-09-25T08:38:04.642Z,50.80
2022-09-25T08:39:07.224Z,50.80
2022-09-25T08:40:17.791Z,50.80
2022-09-25T08:41:24.546Z,50.40
2022-09-25T08:42:33.118Z,49.90
2022-09-25T08:43:37.776Z,49.70
2022-09-25T08:44:56.965Z,49.50
2022-09-25T08:46:25.491Z,49.70
2022-09-25T08:47:48.347Z,49.80
2022-09-25T08:49:02.817Z,50.40
2022-09-25T08:50:11.704Z,50.40
2022-09-25T08:51:14.601Z,50.10
2022-09-25T08:52:18.664Z,50.50
2022-09-25T08:53:25.299Z,50.60
2022-09-25T08:54:30.362Z,50.70
2022-09-25T08:55:54.990Z,50.70
2022-09-25T08:57:02.465Z,50.70
2022-09-25T08:58:06.540Z,50.70
2022-09-25T08:59:09.855Z,50.70
2022-09-25T09:00:21.239Z,50.70
2022-09-25T09:01:42.177Z,50.70
2022-09-25T09:02:54.985Z,50.60
2022-09-25T09:04:08.125Z,50.70
2022-09-25T09:05:21.308Z,50.60
2022-09-25T09:06:27.909Z,50.60
2022-09-25T09:07:41.311Z,50.40
2022-09-25T09:09:12.552Z,49.80
2022-09-25T09:10:21.343Z,50.10
2022-09-25T09:11:25.999Z,50.00
2022-09-25T09:12:37.649Z,50.00
2022-09-25T09:13:44.510Z,49.90
2022-09-25T09:14:48.414Z,50.00
2022-09-25T09:15:50.711Z,49.90
2022-09-25T09:16:58.574Z,49.90
2022-09-25T09:18:02.977Z,49.90
2022-09-25T09:19:06.664Z,49.80
2022-09-25T09:20:32.067Z,49.80
2022-09-25T09:21:36.017Z,50.10
2022-09-25T09:22:42.121Z,49.70
2022-09-25T09:23:59.429Z,49.50
2022-09-25T09:25:05.193Z,50.10
2022-09-25T09:26:15.951Z,50.20
2022-09-25T09:27:26.593Z,50.30
2022-09-25T09:28:42.842Z,50.40
2022-09-25T09:30:05.997Z,50.40
2022-09-25T09:31:27.255Z,50.40
2022-09-25T09:32:40.583Z,50.40
2022-09-25T09:34:03.081Z,50.40
2022-09-25T09:35:14.191Z,50.30
2022-09-25T09:36:23.792Z,50.10
2022-09-25T09:37:31.898Z,50.30
2022-09-25T09:38:42.110Z,50.20
2022-09-25T09:39:50.516Z,50.20
2022-09-25T09:41:10.607Z,50.20
2022-09-25T09:42:28.062Z,49.90
2022-09-25T09:43:31.650Z,50.00
2022-09-25T09:44:42.082Z,49.90
2022-09-25T09:45:44.546Z,49.80
2022-09-25T09:46:49.837Z,49.40
2022-09-25T09:47:55.032Z,49.20
2022-09-25T09:49:15.944Z,49.10
2022-09-25T09:50:27.777Z,49.20
2022-09-25T09:51:33.206Z,49.20
2022-09-25T09:52:37.966Z,49.30
2022-09-25T09:53:46.158Z,49.20
2022-09-25T09:54:48.742Z,49.60
2022-09-25T09:55:53.104Z,49.80
2022-09-25T09:56:56.991Z,49.90
2022-09-25T09:58:04.965Z,49.80
2022-09-25T09:59:14.620Z,49.70
2022-09-25T10:00:18.287Z,49.70
2022-09-25T10:02:46.392Z,49.80
2022-09-25T10:03:49.863Z,49.70
2022-09-25T10:04:53.545Z,49.70
2022-09-25T10:06:01.565Z,49.80
2022-09-25T10:07:09.839Z,50.00
2022-09-25T10:08:12.262Z,50.00
2022-09-25T10:09:15.713Z,50.00
2022-09-25T10:10:19.111Z,50.00
2022-09-25T10:11:22.205Z,50.10
2022-09-25T10:12:33.328Z,50.00
2022-09-25T10:13:37.176Z,50.00
2022-09-25T10:14:43.176Z,50.10
2022-09-25T10:16:05.651Z,50.20
2022-09-25T10:17:11.493Z,50.20
2022-09-25T10:18:14.647Z,50.20
2022-09-25T10:19:22.250Z,50.40
2022-09-25T10:20:26.824Z,50.50
2022-09-25T10:21:31.566Z,49.90
2022-09-25T10:22:40.943Z,49.70
2022-09-25T10:23:46.488Z,50.00
2022-09-25T10:24:53.526Z,49.70
2022-09-25T10:25:56.407Z,50.20
2022-09-25T10:27:18.847Z,50.30
2022-09-25T10:28:29.034Z,50.50
2022-09-25T10:29:31.513Z,50.60
2022-09-25T10:30:33.959Z,50.60
2022-09-25T10:31:37.078Z,50.70
2022-09-25T10:32:57.304Z,50.70
2022-09-25T10:34:00.303Z,50.60
2022-09-25T10:35:03.429Z,50.50
2022-09-25T10:36:06.358Z,50.60
2022-09-25T10:37:21.120Z,50.60
2022-09-25T10:38:42.118Z,50.80
2022-09-25T10:39:46.071Z,50.10
2022-09-25T10:40:58.119Z,50.30
2022-09-25T10:42:01.059Z,50.40
2022-09-25T10:43:12.249Z,50.30
2022-09-25T10:44:29.128Z,50.30
2022-09-25T10:45:32.882Z,50.10
2022-09-25T10:46:55.206Z,49.80
2022-09-25T10:48:17.231Z,50.40
2022-09-25T10:49:38.698Z,50.60
2022-09-25T10:50:42.512Z,50.70
2022-09-25T10:52:01.348Z,50.80
2022-09-25T10:53:05.063Z,50.80
2022-09-25T10:54:11.909Z,50.90
2022-09-25T10:55:19.765Z,50.90
2022-09-25T10:56:35.909Z,50.70
2022-09-25T10:57:38.956Z,50.90
2022-09-25T10:58:43.230Z,50.70
2022-09-25T10:59:48.490Z,51.00
2022-09-25T11:00:51.284Z,50.90
2022-09-25T11:01:55.335Z,50.90
2022-09-25T11:03:00.145Z,50.90
2022-09-25T11:04:16.594Z,50.80
2022-09-25T11:05:22.638Z,50.80
2022-09-25T11:06:25.839Z,50.80
2022-09-25T11:07:28.990Z,50.60
2022-09-25T11:08:34.416Z,50.20
2022-09-25T11:09:43.127Z,50.50
2022-09-25T11:10:51.345Z,50.50
2022-09-25T11:12:03.854Z,50.60
2022-09-25T11:13:17.149Z,50.70
2022-09-25T11:14:19.330Z,50.60
2022-09-25T11:15:23.590Z,50.60
2022-09-25T11:16:45.769Z,50.50
2022-09-25T11:17:50.028Z,50.50
2022-09-25T11:19:05.142Z,50.50
2022-09-25T11:20:16.740Z,50.60
2022-09-25T11:21:21.032Z,50.60
2022-09-25T11:22:30.779Z,50.60
2022-09-25T11:23:33.981Z,50.60
2022-09-25T11:24:51.481Z,50.50
2022-09-25T11:25:54.067Z,50.60
2022-09-25T11:26:59.189Z,50.60
2022-09-25T11:28:09.858Z,50.50
2022-09-25T11:29:33.732Z,50.40
2022-09-25T11:30:51.821Z,50.50
2022-09-25T11:31:59.922Z,50.50
2022-09-25T11:33:02.084Z,50.40
2022-09-25T11:34:23.805Z,50.50
2022-09-25T11:35:34.884Z,50.40
2022-09-25T11:36:42.310Z,50.50
2022-09-25T11:37:50.395Z,50.30
2022-09-25T11:39:11.252Z,50.40
2022-09-25T11:40:51.383Z,49.60
2022-09-25T11:42:04.897Z,49.40
2022-09-25T11:43:12.583Z,49.70
2022-09-25T11:44:27.678Z,49.40
2022-09-25T11:45:30.451Z,49.40
2022-09-25T11:46:46.846Z,49.40
2022-09-25T11:47:54.028Z,49.30
2022-09-25T11:49:15.595Z,49.70
2022-09-25T11:50:18.681Z,49.90
2022-09-25T11:51:28.299Z,50.00
2022-09-25T11:52:41.122Z,50.10
2022-09-25T11:53:57.229Z,50.10
2022-09-25T11:55:27.308Z,49.70
2022-09-25T11:56:33.114Z,49.40
2022-09-25T11:57:35.382Z,49.80
2022-09-25T11:58:46.597Z,49.70
2022-09-25T12:00:08.298Z,49.80
2022-09-25T12:01:23.542Z,50.20
2022-09-25T12:02:44.486Z,50.20
2022-09-25T12:04:05.203Z,50.40
2022-09-25T12:05:16.667Z,50.50
2022-09-25T12:06:20.024Z,50.30
2022-09-25T12:07:35.852Z,50.20
2022-09-25T12:08:57.159Z,50.30
2022-09-25T12:10:08.261Z,50.50
2022-09-25T12:11:16.031Z,50.50
2022-09-25T12:12:27.382Z,50.50
2022-09-25T12:13:41.447Z,50.40
2022-09-25T12:15:01.708Z,50.50
2022-09-25T12:16:16.970Z,50.50
2022-09-25T12:17:23.911Z,50.50
2022-09-25T12:18:28.392Z,50.50
2022-09-25T12:19:52.703Z,50.50
2022-09-25T12:20:54.901Z,50.30
2022-09-25T12:22:01.169Z,50.30
2022-09-25T12:23:26.643Z,50.30
2022-09-25T12:24:43.536Z,50.30
2022-09-25T12:25:59.710Z,50.40
2022-09-25T12:27:21.054Z,50.30
2022-09-25T12:28:28.202Z,50.30
2022-09-25T12:29:30.482Z,50.20
2022-09-25T12:30:59.586Z,50.20
2022-09-25T12:32:09.796Z,50.10
2022-09-25T12:33:23.423Z,49.90
2022-09-25T12:34:28.371Z,49.60
2022-09-25T12:35:38.494Z,49.70
2022-09-25T12:36:57.093Z,49.70
2022-09-25T12:38:05.762Z,49.90
2022-09-25T12:39:11.177Z,50.20
2022-09-25T12:40:23.156Z,50.30
2022-09-25T12:41:29.879Z,50.00
2022-09-25T12:42:47.069Z,50.00
2022-09-25T12:43:49.366Z,50.10
2022-09-25T12:45:00.344Z,50.20
2022-09-25T12:46:09.969Z,50.50
2022-09-25T12:47:33.119Z,50.80
2022-09-25T12:48:35.285Z,50.90
2022-09-25T12:49:52.853Z,51.00
2022-09-25T12:51:05.338Z,51.00
2022-09-25T12:52:34.130Z,51.10
2022-09-25T12:53:40.187Z,51.10
2022-09-25T12:54:53.190Z,51.10
2022-09-25T12:56:17.202Z,51.10
2022-09-25T12:57:28.176Z,51.50
2022-09-25T12:58:49.080Z,50.30
2022-09-25T13:00:05.679Z,50.20
2022-09-25T13:01:14.060Z,50.10
2022-09-25T13:02:23.050Z,50.50
2022-09-25T13:03:36.473Z,50.40
2022-09-25T13:04:51.027Z,50.40
2022-09-25T13:06:05.838Z,50.20
2022-09-25T13:07:13.810Z,50.20
2022-09-25T13:08:23.584Z,50.20
2022-09-25T13:09:41.706Z,50.20
2022-09-25T13:10:50.254Z,50.20
2022-09-25T13:11:52.663Z,50.20
2022-09-25T13:12:56.974Z,50.20
2022-09-25T13:14:01.817Z,50.20
2022-09-25T13:15:10.653Z,50.10
2022-09-25T13:16:15.951Z,50.10
2022-09-25T13:17:18.677Z,49.90
2022-09-25T13:18:22.239Z,49.80
2022-09-25T13:19:25.308Z,49.70
2022-09-25T13:20:28.019Z,49.50
2022-09-25T13:21:36.595Z,49.40
2022-09-25T13:22:40.858Z,49.40
2022-09-25T13:23:43.376Z,49.40
2022-09-25T13:24:45.571Z,49.20
2022-09-25T13:25:48.080Z,49.30
2022-09-25T13:26:52.604Z,49.50
2022-09-25T13:27:56.747Z,49.50
2022-09-25T13:29:01.942Z,49.60
2022-09-25T13:30:05.092Z,49.70
2022-09-25T13:31:10.117Z,49.50
2022-09-25T13:32:17.400Z,49.50
2022-09-25T13:33:20.415Z,49.60
2022-09-25T13:34:24.353Z,49.70
2022-09-25T13:35:27.024Z,49.80
2022-09-25T13:36:32.301Z,49.90
2022-09-25T13:37:36.066Z,49.60
2022-09-25T13:39:03.463Z,49.30
2022-09-25T13:40:34.791Z,49.70
2022-09-25T13:41:46.769Z,49.80
2022-09-25T13:42:49.412Z,49.80
2022-09-25T13:44:11.941Z,49.80
2022-09-25T13:45:27.975Z,49.70
2022-09-25T13:46:33.831Z,49.60
2022-09-25T13:47:38.108Z,49.60
2022-09-25T13:48:40.632Z,49.70
2022-09-25T13:49:50.410Z,49.70
2022-09-25T13:51:12.731Z,49.70
2022-09-25T13:52:33.417Z,49.70
2022-09-25T13:53:51.149Z,49.60
2022-09-25T13:55:07.635Z,49.60
2022-09-25T13:56:13.853Z,49.60
2022-09-25T13:57:16.082Z,49.50
2022-09-25T13:58:22.599Z,49.60
2022-09-25T13:59:45.151Z,49.60
2022-09-25T14:00:50.371Z,49.60
2022-09-25T14:01:54.667Z,49.60
2022-09-25T14:03:01.561Z,49.50
2022-09-25T14:04:15.928Z,49.50
2022-09-25T14:05:21.015Z,49.30
2022-09-25T14:06:24.843Z,49.40
2022-09-25T14:07:29.667Z,49.30
2022-09-25T14:08:32.690Z,49.30
2022-09-25T14:09:34.914Z,49.40
2022-09-25T14:10:37.876Z,49.30
2022-09-25T14:11:41.703Z,49.30
2022-09-25T14:12:48.139Z,49.40
2022-09-25T14:13:51.831Z,49.20
2022-09-25T14:14:59.213Z,49.00
2022-09-25T14:16:03.510Z,49.40
2022-09-25T14:17:08.291Z,49.20
2022-09-25T14:18:16.595Z,49.10
2022-09-25T14:19:21.067Z,49.00
2022-09-25T14:20:29.141Z,49.10
2022-09-25T14:21:33.588Z,48.90